sensor_id;sensor_type;location;lat;lon;timestamp;temperature;humidity
7658;DHT22;8462;53.156;8.220;2023-04-01T00:01:05;12.80;99.90
7658;DHT22;8462;53.156;8.220;2023-04-01T00:03:33;12.80;99.90
7658;DHT22;8462;53.156;8.220;2023-04-01T00:06:03;12.80;99.90
7658;DHT22;8462;53.156;8.220;2023-04-01T00:08:30;12.80;99.90
7658;DHT22;8462;53.156;8.220;2023-04-01T00:10:57;12.80;99.90
7658;DHT22;8462;53.156;8.220;2023-04-01T00:13:25;12.80;99.90
7658;DHT22;8462;53.156;8.220;2023-04-01T00:15:53;12.80;99.90
7658;DHT22;8462;53.156;8.220;2023-04-01T00:18:20;12.80;99.90
7658;DHT22;8462;53.156;8.220;2023-04-01T00:20:49;12.80;99.90
7658;DHT22;8462;53.156;8.220;2023-04-01T00:23:17;12.90;99.90
7658;DHT22;8462;53.156;8.220;2023-04-01T00:25:46;12.80;99.90
7658;DHT22;8462;53.156;8.220;2023-04-01T00:28:13;12.80;99.90
7658;DHT22;8462;53.156;8.220;2023-04-01T00:30:40;12.90;99.90
7658;DHT22;8462;53.156;8.220;2023-04-01T00:33:07;12.90;99.90
7658;DHT22;8462;53.156;8.220;2023-04-01T00:35:34;12.80;99.90
7658;DHT22;8462;53.156;8.220;2023-04-01T00:38:01;12.90;99.90
7658;DHT22;8462;53.156;8.220;2023-04-01T00:40:33;12.80;99.90
7658;DHT22;8462;53.156;8.220;2023-04-01T00:43:01;12.90;99.90
7658;DHT22;8462;53.156;8.220;2023-04-01T00:45:32;12.90;99.90
7658;DHT22;8462;53.156;8.220;2023-04-01T00:48:03;12.90;99.90
7658;DHT22;8462;53.156;8.220;2023-04-01T00:50:32;12.90;99.90
7658;DHT22;8462;53.156;8.220;2023-04-01T00:53:01;13.00;99.90
7658;DHT22;8462;53.156;8.220;2023-04-01T00:55:32;12.90;99.90
7658;DHT22;8462;53.156;8.220;2023-04-01T00:58:02;13.00;99.90
7658;DHT22;8462;53.156;8.220;2023-04-01T01:00:30;12.90;99.90
7658;DHT22;8462;53.156;8.220;2023-04-01T01:02:58;12.90;99.90
7658;DHT22;8462;53.156;8.220;2023-04-01T01:05:32;12.90;99.90
7658;DHT22;8462;53.156;8.220;2023-04-01T01:08:06;12.90;99.90
7658;DHT22;8462;53.156;8.220;2023-04-01T01:10:38;12.90;99.90
7658;DHT22;8462;53.156;8.220;2023-04-01T01:13:10;12.90;99.90
7658;DHT22;8462;53.156;8.220;2023-04-01T01:15:43;12.90;99.90
7658;DHT22;8462;53.156;8.220;2023-04-01T01:18:19;12.80;99.90
7658;DHT22;8462;53.156;8.220;2023-04-01T01:21:15;12.80;99.90
7658;DHT22;8462;53.156;8.220;2023-04-01T01:24:08;12.90;99.90
7658;DHT22;8462;53.156;8.220;2023-04-01T01:26:57;12.80;99.90
7658;DHT22;8462;53.156;8.220;2023-04-01T01:29:44;12.90;99.90
7658;DHT22;8462;53.156;8.220;2023-04-01T01:35:26;12.80;99.90
7658;DHT22;8462;53.156;8.220;2023-04-01T01:37:58;12.70;99.90
7658;DHT22;8462;53.156;8.220;2023-04-01T01:40:27;12.70;99.90
7658;DHT22;8462;53.156;8.220;2023-04-01T01:42:58;12.70;99.90
7658;DHT22;8462;53.156;8.220;2023-04-01T01:45:27;12.70;99.90
7658;DHT22;8462;53.156;8.220;2023-04-01T01:47:55;12.70;99.90
7658;DHT22;8462;53.156;8.220;2023-04-01T01:50:26;12.70;99.90
7658;DHT22;8462;53.156;8.220;2023-04-01T01:53:01;12.70;99.90
7658;DHT22;8462;53.156;8.220;2023-04-01T01:55:30;12.70;99.90
7658;DHT22;8462;53.156;8.220;2023-04-01T01:57:59;12.70;99.90
7658;DHT22;8462;53.156;8.220;2023-04-01T02:00:28;12.70;99.90
7658;DHT22;8462;53.156;8.220;2023-04-01T02:02:57;12.70;99.90
7658;DHT22;8462;53.156;8.220;2023-04-01T02:05:28;12.70;99.90
7658;DHT22;8462;53.156;8.220;2023-04-01T02:08:05;12.70;99.90
7658;DHT22;8462;53.156;8.220;2023-04-01T02:10:37;12.70;99.90
7658;DHT22;8462;53.156;8.220;2023-04-01T02:13:09;12.70;99.90
7658;DHT22;8462;53.156;8.220;2023-04-01T02:15:41;12.70;99.90
7658;DHT22;8462;53.156;8.220;2023-04-01T02:18:10;12.70;99.90
7658;DHT22;8462;53.156;8.220;2023-04-01T02:20:40;12.70;99.90
7658;DHT22;8462;53.156;8.220;2023-04-01T02:23:09;12.80;99.90
7658;DHT22;8462;53.156;8.220;2023-04-01T02:25:37;12.80;99.90
7658;DHT22;8462;53.156;8.220;2023-04-01T02:28:06;12.80;99.90
7658;DHT22;8462;53.156;8.220;2023-04-01T02:30:35;12.80;99.90
7658;DHT22;8462;53.156;8.220;2023-04-01T02:33:04;12.80;99.90
7658;DHT22;8462;53.156;8.220;2023-04-01T02:35:33;12.80;99.90
7658;DHT22;8462;53.156;8.220;2023-04-01T02:38:02;12.80;99.90
7658;DHT22;8462;53.156;8.220;2023-04-01T02:40:29;12.80;99.90
7658;DHT22;8462;53.156;8.220;2023-04-01T02:42:56;12.80;99.90
7658;DHT22;8462;53.156;8.220;2023-04-01T02:45:23;12.80;99.90
7658;DHT22;8462;53.156;8.220;2023-04-01T02:47:50;12.80;99.90
7658;DHT22;8462;53.156;8.220;2023-04-01T02:50:17;12.80;99.90
7658;DHT22;8462;53.156;8.220;2023-04-01T02:52:44;12.80;99.90
7658;DHT22;8462;53.156;8.220;2023-04-01T02:55:13;12.80;99.90
7658;DHT22;8462;53.156;8.220;2023-04-01T02:57:40;12.80;99.90
7658;DHT22;8462;53.156;8.220;2023-04-01T03:00:08;12.80;99.90
7658;DHT22;8462;53.156;8.220;2023-04-01T03:02:37;12.80;99.90
7658;DHT22;8462;53.156;8.220;2023-04-01T03:05:05;12.80;99.90
7658;DHT22;8462;53.156;8.220;2023-04-01T03:07:32;12.80;99.90
7658;DHT22;8462;53.156;8.220;2023-04-01T03:09:59;12.80;99.90
7658;DHT22;8462;53.156;8.220;2023-04-01T03:12:28;12.80;99.90
7658;DHT22;8462;53.156;8.220;2023-04-01T03:14:55;12.80;99.90
7658;DHT22;8462;53.156;8.220;2023-04-01T03:17:22;12.80;99.90
7658;DHT22;8462;53.156;8.220;2023-04-01T03:19:49;12.80;99.90
7658;DHT22;8462;53.156;8.220;2023-04-01T03:22:16;12.70;99.90
7658;DHT22;8462;53.156;8.220;2023-04-01T03:24:44;12.70;99.90
7658;DHT22;8462;53.156;8.220;2023-04-01T03:27:11;12.70;99.90
7658;DHT22;8462;53.156;8.220;2023-04-01T03:29:40;12.60;99.90
7658;DHT22;8462;53.156;8.220;2023-04-01T03:32:07;12.60;99.90
7658;DHT22;8462;53.156;8.220;2023-04-01T03:34:34;12.60;99.90
7658;DHT22;8462;53.156;8.220;2023-04-01T03:37:01;12.60;99.90
7658;DHT22;8462;53.156;8.220;2023-04-01T03:39:28;12.60;99.90
7658;DHT22;8462;53.156;8.220;2023-04-01T03:41:55;12.60;99.90
7658;DHT22;8462;53.156;8.220;2023-04-01T03:44:22;12.60;99.90
7658;DHT22;8462;53.156;8.220;2023-04-01T03:46:53;12.60;99.90
7658;DHT22;8462;53.156;8.220;2023-04-01T03:49:20;12.50;99.90
7658;DHT22;8462;53.156;8.220;2023-04-01T03:51:47;12.50;99.90
7658;DHT22;8462;53.156;8.220;2023-04-01T03:54:14;12.50;99.90
7658;DHT22;8462;53.156;8.220;2023-04-01T03:56:43;12.60;99.90
7658;DHT22;8462;53.156;8.220;2023-04-01T03:59:10;12.50;99.90
7658;DHT22;8462;53.156;8.220;2023-04-01T04:01:38;12.50;99.90
7658;DHT22;8462;53.156;8.220;2023-04-01T04:04:06;12.50;99.90
7658;DHT22;8462;53.156;8.220;2023-04-01T04:06:33;12.50;99.90
7658;DHT22;8462;53.156;8.220;2023-04-01T04:09:01;12.50;99.90
7658;DHT22;8462;53.156;8.220;2023-04-01T04:11:31;12.50;99.90
7658;DHT22;8462;53.156;8.220;2023-04-01T04:13:58;12.50;99.90
7658;DHT22;8462;53.156;8.220;2023-04-01T04:16:25;12.50;99.90
7658;DHT22;8462;53.156;8.220;2023-04-01T04:18:57;12.50;99.90
7658;DHT22;8462;53.156;8.220;2023-04-01T04:21:25;12.50;99.90
7658;DHT22;8462;53.156;8.220;2023-04-01T04:23:52;12.40;99.90
7658;DHT22;8462;53.156;8.220;2023-04-01T04:26:20;12.40;99.90
7658;DHT22;8462;53.156;8.220;2023-04-01T04:28:58;12.30;99.90
7658;DHT22;8462;53.156;8.220;2023-04-01T04:31:25;12.40;99.90
7658;DHT22;8462;53.156;8.220;2023-04-01T04:33:55;12.30;99.90
7658;DHT22;8462;53.156;8.220;2023-04-01T04:36:22;12.30;99.90
7658;DHT22;8462;53.156;8.220;2023-04-01T04:38:51;12.30;99.90
7658;DHT22;8462;53.156;8.220;2023-04-01T04:41:19;12.40;99.90
7658;DHT22;8462;53.156;8.220;2023-04-01T04:43:50;12.30;99.90
7658;DHT22;8462;53.156;8.220;2023-04-01T04:46:17;12.30;99.90
7658;DHT22;8462;53.156;8.220;2023-04-01T04:48:45;12.30;99.90
7658;DHT22;8462;53.156;8.220;2023-04-01T04:51:14;12.30;99.90
7658;DHT22;8462;53.156;8.220;2023-04-01T04:53:42;12.30;99.90
7658;DHT22;8462;53.156;8.220;2023-04-01T04:56:10;12.30;99.90
7658;DHT22;8462;53.156;8.220;2023-04-01T04:58:43;12.20;99.90
7658;DHT22;8462;53.156;8.220;2023-04-01T05:01:16;12.20;99.90
7658;DHT22;8462;53.156;8.220;2023-04-01T05:03:43;12.20;99.90
7658;DHT22;8462;53.156;8.220;2023-04-01T05:06:12;12.20;99.90
7658;DHT22;8462;53.156;8.220;2023-04-01T05:08:40;12.20;99.90
7658;DHT22;8462;53.156;8.220;2023-04-01T05:11:12;12.20;99.90
7658;DHT22;8462;53.156;8.220;2023-04-01T05:13:42;12.20;99.90
7658;DHT22;8462;53.156;8.220;2023-04-01T05:16:10;12.20;99.90
7658;DHT22;8462;53.156;8.220;2023-04-01T05:18:37;12.20;99.90
7658;DHT22;8462;53.156;8.220;2023-04-01T05:21:07;12.20;99.90
7658;DHT22;8462;53.156;8.220;2023-04-01T05:23:34;12.30;99.90
7658;DHT22;8462;53.156;8.220;2023-04-01T05:26:03;12.30;99.90
7658;DHT22;8462;53.156;8.220;2023-04-01T05:28:33;12.20;99.90
7658;DHT22;8462;53.156;8.220;2023-04-01T05:31:00;12.20;99.90
7658;DHT22;8462;53.156;8.220;2023-04-01T05:33:33;12.20;99.90
7658;DHT22;8462;53.156;8.220;2023-04-01T05:36:09;12.20;99.90
7658;DHT22;8462;53.156;8.220;2023-04-01T05:38:36;12.20;99.90
7658;DHT22;8462;53.156;8.220;2023-04-01T05:41:05;12.20;99.90
7658;DHT22;8462;53.156;8.220;2023-04-01T05:43:38;12.30;99.90
7658;DHT22;8462;53.156;8.220;2023-04-01T05:46:24;12.30;99.90
7658;DHT22;8462;53.156;8.220;2023-04-01T05:49:05;12.30;99.90
7658;DHT22;8462;53.156;8.220;2023-04-01T05:51:32;12.30;99.90
7658;DHT22;8462;53.156;8.220;2023-04-01T05:53:59;12.40;99.90
7658;DHT22;8462;53.156;8.220;2023-04-01T05:56:26;12.40;99.90
7658;DHT22;8462;53.156;8.220;2023-04-01T05:58:54;12.30;99.90
7658;DHT22;8462;53.156;8.220;2023-04-01T06:01:23;12.30;99.90
7658;DHT22;8462;53.156;8.220;2023-04-01T06:03:50;12.30;99.90
7658;DHT22;8462;53.156;8.220;2023-04-01T06:06:24;12.40;99.90
7658;DHT22;8462;53.156;8.220;2023-04-01T06:08:58;12.40;99.90
7658;DHT22;8462;53.156;8.220;2023-04-01T06:11:35;12.40;99.90
7658;DHT22;8462;53.156;8.220;2023-04-01T06:14:19;12.40;99.90
7658;DHT22;8462;53.156;8.220;2023-04-01T06:17:03;12.40;99.90
7658;DHT22;8462;53.156;8.220;2023-04-01T06:19:39;12.40;99.90
7658;DHT22;8462;53.156;8.220;2023-04-01T06:25:32;12.30;99.90
7658;DHT22;8462;53.156;8.220;2023-04-01T06:28:46;12.40;99.90
7658;DHT22;8462;53.156;8.220;2023-04-01T06:31:24;12.40;99.90
7658;DHT22;8462;53.156;8.220;2023-04-01T06:34:02;12.50;99.90
7658;DHT22;8462;53.156;8.220;2023-04-01T06:36:56;12.50;99.90
7658;DHT22;8462;53.156;8.220;2023-04-01T06:39:46;12.50;99.90
7658;DHT22;8462;53.156;8.220;2023-04-01T06:42:27;12.50;99.90
7658;DHT22;8462;53.156;8.220;2023-04-01T06:45:11;12.50;99.90
7658;DHT22;8462;53.156;8.220;2023-04-01T06:48:33;12.60;99.90
7658;DHT22;8462;53.156;8.220;2023-04-01T06:51:39;12.60;99.90
7658;DHT22;8462;53.156;8.220;2023-04-01T06:54:32;12.60;99.90
7658;DHT22;8462;53.156;8.220;2023-04-01T06:57:16;12.60;99.90
7658;DHT22;8462;53.156;8.220;2023-04-01T06:59:47;12.70;99.90
7658;DHT22;8462;53.156;8.220;2023-04-01T07:02:22;12.70;99.90
7658;DHT22;8462;53.156;8.220;2023-04-01T07:04:54;12.70;99.90
7658;DHT22;8462;53.156;8.220;2023-04-01T07:07:29;12.60;99.90
7658;DHT22;8462;53.156;8.220;2023-04-01T07:10:05;12.60;99.90
7658;DHT22;8462;53.156;8.220;2023-04-01T07:12:38;12.60;99.90
7658;DHT22;8462;53.156;8.220;2023-04-01T07:15:28;12.70;99.90
7658;DHT22;8462;53.156;8.220;2023-04-01T07:18:02;12.70;99.90
7658;DHT22;8462;53.156;8.220;2023-04-01T07:20:35;12.70;99.90
7658;DHT22;8462;53.156;8.220;2023-04-01T07:23:05;12.70;99.90
7658;DHT22;8462;53.156;8.220;2023-04-01T07:26:17;12.80;99.90
7658;DHT22;8462;53.156;8.220;2023-04-01T07:29:08;12.80;99.90
7658;DHT22;8462;53.156;8.220;2023-04-01T07:34:36;12.90;99.90
7658;DHT22;8462;53.156;8.220;2023-04-01T07:37:12;13.00;99.90
7658;DHT22;8462;53.156;8.220;2023-04-01T07:39:48;13.00;99.90
7658;DHT22;8462;53.156;8.220;2023-04-01T07:42:32;13.00;99.90
7658;DHT22;8462;53.156;8.220;2023-04-01T07:45:07;13.00;99.90
7658;DHT22;8462;53.156;8.220;2023-04-01T07:48:01;13.00;99.90
7658;DHT22;8462;53.156;8.220;2023-04-01T07:50:37;13.10;99.90
7658;DHT22;8462;53.156;8.220;2023-04-01T07:53:17;13.20;99.90
7658;DHT22;8462;53.156;8.220;2023-04-01T07:55:52;13.40;99.90
7658;DHT22;8462;53.156;8.220;2023-04-01T07:58:31;13.50;99.90
7658;DHT22;8462;53.156;8.220;2023-04-01T08:01:09;13.40;99.90
7658;DHT22;8462;53.156;8.220;2023-04-01T08:04:03;13.50;99.90
7658;DHT22;8462;53.156;8.220;2023-04-01T08:06:38;13.50;99.90
7658;DHT22;8462;53.156;8.220;2023-04-01T08:09:17;13.50;99.90
7658;DHT22;8462;53.156;8.220;2023-04-01T08:12:13;13.40;99.90
7658;DHT22;8462;53.156;8.220;2023-04-01T08:15:24;13.50;99.90
7658;DHT22;8462;53.156;8.220;2023-04-01T08:18:15;13.70;99.90
7658;DHT22;8462;53.156;8.220;2023-04-01T08:20:48;13.80;99.90
7658;DHT22;8462;53.156;8.220;2023-04-01T08:23:19;14.00;99.90
7658;DHT22;8462;53.156;8.220;2023-04-01T08:25:52;14.10;99.90
7658;DHT22;8462;53.156;8.220;2023-04-01T08:28:29;14.20;99.90
7658;DHT22;8462;53.156;8.220;2023-04-01T08:31:02;14.30;99.90
7658;DHT22;8462;53.156;8.220;2023-04-01T08:33:32;14.40;99.90
7658;DHT22;8462;53.156;8.220;2023-04-01T08:36:06;14.50;99.90
7658;DHT22;8462;53.156;8.220;2023-04-01T08:38:39;14.50;99.90
7658;DHT22;8462;53.156;8.220;2023-04-01T08:41:27;14.40;99.90
7658;DHT22;8462;53.156;8.220;2023-04-01T08:44:46;14.40;99.90
7658;DHT22;8462;53.156;8.220;2023-04-01T08:47:46;14.40;99.90
7658;DHT22;8462;53.156;8.220;2023-04-01T08:50:48;14.30;99.90
7658;DHT22;8462;53.156;8.220;2023-04-01T08:53:53;14.30;99.90
7658;DHT22;8462;53.156;8.220;2023-04-01T08:56:34;14.40;99.90
7658;DHT22;8462;53.156;8.220;2023-04-01T08:59:26;14.50;99.90
7658;DHT22;8462;53.156;8.220;2023-04-01T09:07:56;14.70;99.90
7658;DHT22;8462;53.156;8.220;2023-04-01T09:10:44;14.80;99.90
7658;DHT22;8462;53.156;8.220;2023-04-01T09:14:01;14.80;99.90
7658;DHT22;8462;53.156;8.220;2023-04-01T09:16:49;14.80;99.90
7658;DHT22;8462;53.156;8.220;2023-04-01T09:19:27;14.90;99.90
7658;DHT22;8462;53.156;8.220;2023-04-01T09:22:13;14.90;99.90
7658;DHT22;8462;53.156;8.220;2023-04-01T09:25:17;15.00;99.90
7658;DHT22;8462;53.156;8.220;2023-04-01T09:27:56;14.90;99.90
7658;DHT22;8462;53.156;8.220;2023-04-01T09:30:40;14.80;99.90
7658;DHT22;8462;53.156;8.220;2023-04-01T09:33:43;14.60;99.90
7658;DHT22;8462;53.156;8.220;2023-04-01T09:36:25;14.50;99.90
7658;DHT22;8462;53.156;8.220;2023-04-01T09:38:59;14.50;99.90
7658;DHT22;8462;53.156;8.220;2023-04-01T09:41:31;14.40;99.90
7658;DHT22;8462;53.156;8.220;2023-04-01T09:44:17;14.30;99.90
7658;DHT22;8462;53.156;8.220;2023-04-01T09:47:16;14.30;99.90
7658;DHT22;8462;53.156;8.220;2023-04-01T09:50:19;14.50;99.90
7658;DHT22;8462;53.156;8.220;2023-04-01T09:52:54;14.50;99.90
7658;DHT22;8462;53.156;8.220;2023-04-01T09:55:52;14.40;99.90
7658;DHT22;8462;53.156;8.220;2023-04-01T09:58:57;14.30;99.90
7658;DHT22;8462;53.156;8.220;2023-04-01T10:05:11;13.90;99.90
7658;DHT22;8462;53.156;8.220;2023-04-01T10:14:12;12.60;99.90
7658;DHT22;8462;53.156;8.220;2023-04-01T10:17:18;12.40;99.90
7658;DHT22;8462;53.156;8.220;2023-04-01T10:20:00;12.40;99.90
7658;DHT22;8462;53.156;8.220;2023-04-01T10:23:13;12.30;99.90
7658;DHT22;8462;53.156;8.220;2023-04-01T10:26:19;12.20;99.90
7658;DHT22;8462;53.156;8.220;2023-04-01T10:29:23;12.10;99.90
7658;DHT22;8462;53.156;8.220;2023-04-01T10:32:21;12.00;99.90
7658;DHT22;8462;53.156;8.220;2023-04-01T10:35:09;11.70;99.90
7658;DHT22;8462;53.156;8.220;2023-04-01T10:38:04;11.70;99.90
7658;DHT22;8462;53.156;8.220;2023-04-01T10:41:04;11.50;99.90
7658;DHT22;8462;53.156;8.220;2023-04-01T10:50:39;11.50;99.90
7658;DHT22;8462;53.156;8.220;2023-04-01T10:53:38;11.40;99.90
7658;DHT22;8462;53.156;8.220;2023-04-01T10:56:39;11.30;99.90
7658;DHT22;8462;53.156;8.220;2023-04-01T10:59:36;11.30;99.90
7658;DHT22;8462;53.156;8.220;2023-04-01T11:03:02;11.40;99.90
7658;DHT22;8462;53.156;8.220;2023-04-01T11:13:08;11.30;99.90
7658;DHT22;8462;53.156;8.220;2023-04-01T11:16:18;11.30;99.90
7658;DHT22;8462;53.156;8.220;2023-04-01T11:22:14;11.60;99.90
7658;DHT22;8462;53.156;8.220;2023-04-01T11:25:09;11.60;99.90
7658;DHT22;8462;53.156;8.220;2023-04-01T11:28:05;11.60;99.90
7658;DHT22;8462;53.156;8.220;2023-04-01T11:30:44;11.40;99.90
7658;DHT22;8462;53.156;8.220;2023-04-01T11:33:20;11.20;99.90
7658;DHT22;8462;53.156;8.220;2023-04-01T11:36:05;11.20;99.90
7658;DHT22;8462;53.156;8.220;2023-04-01T11:38:57;11.10;99.90
7658;DHT22;8462;53.156;8.220;2023-04-01T11:41:48;11.00;99.90
7658;DHT22;8462;53.156;8.220;2023-04-01T11:44:37;10.90;99.90
7658;DHT22;8462;53.156;8.220;2023-04-01T11:47:35;10.80;99.90
7658;DHT22;8462;53.156;8.220;2023-04-01T11:50:21;10.70;99.90
7658;DHT22;8462;53.156;8.220;2023-04-01T11:53:11;10.70;99.90
7658;DHT22;8462;53.156;8.220;2023-04-01T11:55:54;10.60;99.90
7658;DHT22;8462;53.156;8.220;2023-04-01T11:58:53;10.60;99.90
7658;DHT22;8462;53.156;8.220;2023-04-01T12:01:28;10.60;99.90
7658;DHT22;8462;53.156;8.220;2023-04-01T12:04:18;10.50;99.90
7658;DHT22;8462;53.156;8.220;2023-04-01T12:06:56;10.40;99.90
7658;DHT22;8462;53.156;8.220;2023-04-01T12:09:31;10.40;99.90
7658;DHT22;8462;53.156;8.220;2023-04-01T12:12:11;10.40;99.90
7658;DHT22;8462;53.156;8.220;2023-04-01T12:14:44;10.40;99.90
7658;DHT22;8462;53.156;8.220;2023-04-01T12:17:21;10.30;99.90
7658;DHT22;8462;53.156;8.220;2023-04-01T12:19:58;10.20;99.90
7658;DHT22;8462;53.156;8.220;2023-04-01T12:22:39;10.10;99.90
7658;DHT22;8462;53.156;8.220;2023-04-01T12:25:33;10.20;99.90
7658;DHT22;8462;53.156;8.220;2023-04-01T12:28:13;10.20;99.90
7658;DHT22;8462;53.156;8.220;2023-04-01T12:30:51;10.10;99.90
7658;DHT22;8462;53.156;8.220;2023-04-01T12:33:44;10.20;99.90
7658;DHT22;8462;53.156;8.220;2023-04-01T12:36:23;10.10;99.90
7658;DHT22;8462;53.156;8.220;2023-04-01T12:39:29;10.00;99.90
7658;DHT22;8462;53.156;8.220;2023-04-01T12:42:07;9.90;99.90
7658;DHT22;8462;53.156;8.220;2023-04-01T12:44:52;10.00;99.90
7658;DHT22;8462;53.156;8.220;2023-04-01T12:47:40;10.00;99.90
7658;DHT22;8462;53.156;8.220;2023-04-01T12:50:16;10.00;99.90
7658;DHT22;8462;53.156;8.220;2023-04-01T12:52:58;9.90;99.90
7658;DHT22;8462;53.156;8.220;2023-04-01T12:55:43;9.90;99.90
7658;DHT22;8462;53.156;8.220;2023-04-01T12:58:43;9.90;99.90
7658;DHT22;8462;53.156;8.220;2023-04-01T13:01:50;9.90;99.90
7658;DHT22;8462;53.156;8.220;2023-04-01T13:04:56;9.80;99.90
7658;DHT22;8462;53.156;8.220;2023-04-01T13:07:38;9.80;99.90
7658;DHT22;8462;53.156;8.220;2023-04-01T13:10:20;9.90;99.90
7658;DHT22;8462;53.156;8.220;2023-04-01T13:13:07;9.90;99.90
7658;DHT22;8462;53.156;8.220;2023-04-01T13:15:40;9.90;99.90
7658;DHT22;8462;53.156;8.220;2023-04-01T13:18:24;10.00;99.90
7658;DHT22;8462;53.156;8.220;2023-04-01T13:21:03;10.10;99.90
7658;DHT22;8462;53.156;8.220;2023-04-01T13:23:45;10.10;99.90
7658;DHT22;8462;53.156;8.220;2023-04-01T13:26:20;10.00;99.90
7658;DHT22;8462;53.156;8.220;2023-04-01T13:28:53;10.00;99.90
7658;DHT22;8462;53.156;8.220;2023-04-01T13:31:29;10.00;99.90
7658;DHT22;8462;53.156;8.220;2023-04-01T13:34:08;10.00;99.90
7658;DHT22;8462;53.156;8.220;2023-04-01T13:36:48;10.00;99.90
7658;DHT22;8462;53.156;8.220;2023-04-01T13:39:35;10.10;99.90
7658;DHT22;8462;53.156;8.220;2023-04-01T13:42:14;10.00;99.90
7658;DHT22;8462;53.156;8.220;2023-04-01T13:44:46;10.00;99.90
7658;DHT22;8462;53.156;8.220;2023-04-01T13:50:26;9.90;99.90
7658;DHT22;8462;53.156;8.220;2023-04-01T13:53:29;9.90;99.90
7658;DHT22;8462;53.156;8.220;2023-04-01T13:56:13;9.90;99.90
7658;DHT22;8462;53.156;8.220;2023-04-01T13:59:05;9.90;99.90
7658;DHT22;8462;53.156;8.220;2023-04-01T14:01:39;9.90;99.90
7658;DHT22;8462;53.156;8.220;2023-04-01T14:04:24;9.90;99.90
7658;DHT22;8462;53.156;8.220;2023-04-01T14:07:00;9.90;99.90
7658;DHT22;8462;53.156;8.220;2023-04-01T14:09:45;9.90;99.90
7658;DHT22;8462;53.156;8.220;2023-04-01T14:12:26;9.90;99.90
7658;DHT22;8462;53.156;8.220;2023-04-01T14:18:10;9.80;99.90
7658;DHT22;8462;53.156;8.220;2023-04-01T14:20:50;9.70;99.90
7658;DHT22;8462;53.156;8.220;2023-04-01T14:23:41;9.70;99.90
7658;DHT22;8462;53.156;8.220;2023-04-01T14:26:50;9.80;99.90
7658;DHT22;8462;53.156;8.220;2023-04-01T14:29:26;9.80;99.90
7658;DHT22;8462;53.156;8.220;2023-04-01T14:32:05;9.80;99.90
7658;DHT22;8462;53.156;8.220;2023-04-01T14:34:53;9.70;99.90
7658;DHT22;8462;53.156;8.220;2023-04-01T14:37:36;9.70;99.90
7658;DHT22;8462;53.156;8.220;2023-04-01T14:40:26;9.60;99.90
7658;DHT22;8462;53.156;8.220;2023-04-01T14:43:21;9.60;99.90
7658;DHT22;8462;53.156;8.220;2023-04-01T14:46:20;9.60;99.90
7658;DHT22;8462;53.156;8.220;2023-04-01T14:48:53;9.50;99.90
7658;DHT22;8462;53.156;8.220;2023-04-01T14:51:29;9.50;99.90
7658;DHT22;8462;53.156;8.220;2023-04-01T14:54:05;9.40;99.90
7658;DHT22;8462;53.156;8.220;2023-04-01T14:56:40;9.30;99.90
7658;DHT22;8462;53.156;8.220;2023-04-01T14:59:10;9.30;99.90
7658;DHT22;8462;53.156;8.220;2023-04-01T15:01:47;9.30;99.90
7658;DHT22;8462;53.156;8.220;2023-04-01T15:04:35;9.20;99.90
7658;DHT22;8462;53.156;8.220;2023-04-01T15:07:18;9.20;99.90
7658;DHT22;8462;53.156;8.220;2023-04-01T15:09:55;9.20;99.90
7658;DHT22;8462;53.156;8.220;2023-04-01T15:12:30;9.00;99.90
7658;DHT22;8462;53.156;8.220;2023-04-01T15:15:17;9.00;99.90
7658;DHT22;8462;53.156;8.220;2023-04-01T15:18:07;9.00;99.90
7658;DHT22;8462;53.156;8.220;2023-04-01T15:23:56;9.00;99.90
7658;DHT22;8462;53.156;8.220;2023-04-01T15:26:47;8.90;99.90
7658;DHT22;8462;53.156;8.220;2023-04-01T15:29:43;8.90;99.90
7658;DHT22;8462;53.156;8.220;2023-04-01T15:32:17;8.80;99.90
7658;DHT22;8462;53.156;8.220;2023-04-01T15:34:51;8.80;99.90
7658;DHT22;8462;53.156;8.220;2023-04-01T15:37:28;8.80;99.90
7658;DHT22;8462;53.156;8.220;2023-04-01T15:40:07;8.70;99.90
7658;DHT22;8462;53.156;8.220;2023-04-01T15:42:51;8.70;99.90
7658;DHT22;8462;53.156;8.220;2023-04-01T15:45:36;8.70;99.90
7658;DHT22;8462;53.156;8.220;2023-04-01T15:48:18;8.70;99.90
7658;DHT22;8462;53.156;8.220;2023-04-01T15:50:56;8.60;99.90
7658;DHT22;8462;53.156;8.220;2023-04-01T15:53:42;8.60;99.90
7658;DHT22;8462;53.156;8.220;2023-04-01T15:56:23;8.60;99.90
7658;DHT22;8462;53.156;8.220;2023-04-01T15:58:59;8.50;99.90
7658;DHT22;8462;53.156;8.220;2023-04-01T16:01:38;8.40;99.90
7658;DHT22;8462;53.156;8.220;2023-04-01T16:04:20;8.40;99.90
7658;DHT22;8462;53.156;8.220;2023-04-01T16:07:09;8.40;99.90
7658;DHT22;8462;53.156;8.220;2023-04-01T16:10:05;8.30;99.90
7658;DHT22;8462;53.156;8.220;2023-04-01T16:12:47;8.20;99.90
7658;DHT22;8462;53.156;8.220;2023-04-01T16:15:24;8.20;99.90
7658;DHT22;8462;53.156;8.220;2023-04-01T16:18:08;8.10;99.90
7658;DHT22;8462;53.156;8.220;2023-04-01T16:20:45;8.10;99.90
7658;DHT22;8462;53.156;8.220;2023-04-01T16:23:22;8.10;99.90
7658;DHT22;8462;53.156;8.220;2023-04-01T16:26:01;8.00;99.90
7658;DHT22;8462;53.156;8.220;2023-04-01T16:28:32;8.00;99.90
7658;DHT22;8462;53.156;8.220;2023-04-01T16:31:06;8.00;99.90
7658;DHT22;8462;53.156;8.220;2023-04-01T16:33:41;8.00;99.90
7658;DHT22;8462;53.156;8.220;2023-04-01T16:36:21;8.00;99.90
7658;DHT22;8462;53.156;8.220;2023-04-01T16:38:55;8.00;99.90
7658;DHT22;8462;53.156;8.220;2023-04-01T16:41:29;8.00;99.90
7658;DHT22;8462;53.156;8.220;2023-04-01T16:44:09;8.00;99.90
7658;DHT22;8462;53.156;8.220;2023-04-01T16:46:41;8.00;99.90
7658;DHT22;8462;53.156;8.220;2023-04-01T16:49:37;8.00;99.90
7658;DHT22;8462;53.156;8.220;2023-04-01T16:52:14;8.00;99.90
7658;DHT22;8462;53.156;8.220;2023-04-01T16:54:46;8.00;99.90
7658;DHT22;8462;53.156;8.220;2023-04-01T16:57:23;8.00;99.90
7658;DHT22;8462;53.156;8.220;2023-04-01T16:59:57;8.00;99.90
7658;DHT22;8462;53.156;8.220;2023-04-01T17:02:31;8.10;99.90
7658;DHT22;8462;53.156;8.220;2023-04-01T17:05:03;8.10;99.90
7658;DHT22;8462;53.156;8.220;2023-04-01T17:07:46;8.10;99.90
7658;DHT22;8462;53.156;8.220;2023-04-01T17:10:33;8.10;99.90
7658;DHT22;8462;53.156;8.220;2023-04-01T17:13:23;8.20;99.90
7658;DHT22;8462;53.156;8.220;2023-04-01T17:16:01;8.20;99.90
7658;DHT22;8462;53.156;8.220;2023-04-01T17:18:36;8.20;99.90
7658;DHT22;8462;53.156;8.220;2023-04-01T17:21:13;8.20;99.90
7658;DHT22;8462;53.156;8.220;2023-04-01T17:23:45;8.10;99.90
7658;DHT22;8462;53.156;8.220;2023-04-01T17:26:17;8.20;99.90
7658;DHT22;8462;53.156;8.220;2023-04-01T17:28:52;8.20;99.90
7658;DHT22;8462;53.156;8.220;2023-04-01T17:31:45;8.30;99.90
7658;DHT22;8462;53.156;8.220;2023-04-01T17:37:09;8.30;99.90
7658;DHT22;8462;53.156;8.220;2023-04-01T17:39:56;8.30;99.90
7658;DHT22;8462;53.156;8.220;2023-04-01T17:42:35;8.30;99.90
7658;DHT22;8462;53.156;8.220;2023-04-01T17:45:10;8.20;99.90
7658;DHT22;8462;53.156;8.220;2023-04-01T17:47:44;8.10;99.90
7658;DHT22;8462;53.156;8.220;2023-04-01T17:50:22;8.00;99.90
7658;DHT22;8462;53.156;8.220;2023-04-01T17:52:59;8.00;99.90
7658;DHT22;8462;53.156;8.220;2023-04-01T17:55:45;7.90;99.90
7658;DHT22;8462;53.156;8.220;2023-04-01T17:58:18;8.00;99.90
7658;DHT22;8462;53.156;8.220;2023-04-01T18:01:06;8.00;99.90
7658;DHT22;8462;53.156;8.220;2023-04-01T18:03:54;8.00;99.90
7658;DHT22;8462;53.156;8.220;2023-04-01T18:06:29;8.10;99.90
7658;DHT22;8462;53.156;8.220;2023-04-01T18:09:00;8.00;99.90
7658;DHT22;8462;53.156;8.220;2023-04-01T18:11:41;8.00;99.90
7658;DHT22;8462;53.156;8.220;2023-04-01T18:14:28;8.00;99.90
7658;DHT22;8462;53.156;8.220;2023-04-01T18:17:12;7.90;99.90